Time;durP1;ratioP1;P1;durP2;ratioP2;P2;SDS_P1;SDS_P2;PMS_P1;PMS_P2;Temp;Humidity;BMP_temperature;BMP_pressure;BME280_temperature;BME280_humidity;BME280_pressure;Samples;Min_cycle;Max_cycle;Signal;HPM_P1;HPM_P2
2022/10/22 07:48:57;;;;;;;1.30;0.60;;;;;;;14.81;79.21;96604.31;2116561;27;395181;-67
2022/10/22 07:49:58;;;;;;;1.73;0.75;;;;;;;14.79;79.76;96614.94;2103186;28;21483;-67
2022/10/22 07:51:00;;;;;;;2.80;0.80;;;;;;;14.84;79.79;96615.50;2096617;28;20235;-69
2022/10/22 07:52:02;;;;;;;1.30;0.70;;;;;;;14.86;79.33;96595.19;2090007;28;20204;-69
2022/10/22 07:53:03;;;;;;;2.83;0.93;;;;;;;15.11;78.40;96616.47;2087348;28;20239;-69
2022/10/22 07:54:05;;;;;;;5.03;1.02;;;;;;;15.59;77.26;96592.34;2090427;28;20254;-69
2022/10/22 07:55:12;;;;;;;4.18;1.00;;;;;;;15.65;76.37;96599.84;2098509;28;20191;-69
2022/10/22 07:56:13;;;;;;;2.78;0.73;;;;;;;15.45;76.75;96611.69;2098313;28;20225;-69
2022/10/22 07:57:15;;;;;;;1.42;0.75;;;;;;;15.34;77.41;96609.75;2100160;28;20282;-69
2022/10/22 07:58:17;;;;;;;9.52;0.80;;;;;;;15.69;76.16;96606.59;2099141;28;20207;-69
2022/10/22 07:59:18;;;;;;;2.50;0.88;;;;;;;15.83;75.88;96588.16;2090899;28;20240;-68
2022/10/22 08:00:24;;;;;;;1.60;0.80;;;;;;;16.17;74.83;96600.81;2090715;28;20820;-69
2022/10/22 08:01:25;;;;;;;2.22;0.82;;;;;;;16.64;72.56;96601.97;2088821;28;20204;-69
2022/10/22 08:02:27;;;;;;;1.20;0.65;;;;;;;17.10;71.46;96610.25;2090710;28;20191;-69
2022/10/22 08:03:28;;;;;;;2.05;0.70;;;;;;;17.62;69.45;96616.16;2091738;28;20270;-69
2022/10/22 08:04:30;;;;;;;2.33;0.80;;;;;;;17.15;69.96;96610.75;2090260;28;20580;-69
2022/10/22 08:05:32;;;;;;;1.10;0.60;;;;;;;16.79;71.40;96610.59;2091289;28;20291;-70
2022/10/22 08:06:33;;;;;;;1.25;0.65;;;;;;;16.63;72.35;96616.13;2090784;28;20344;-69
2022/10/22 08:07:39;;;;;;;2.22;0.77;;;;;;;16.28;73.36;96618.53;2091874;28;20640;-69
2022/10/22 08:08:42;;;;;;;1.65;0.90;;;;;;;15.94;74.76;96615.53;2091132;28;20299;-70
2022/10/22 08:09:43;;;;;;;2.53;1.10;;;;;;;15.91;74.75;96621.88;2091593;28;20258;-69
2022/10/22 08:10:47;;;;;;;2.22;0.70;;;;;;;16.59;72.60;96622.53;2083750;28;20624;-69
2022/10/22 08:11:49;;;;;;;2.75;0.82;;;;;;;17.12;71.03;96625.00;2093595;28;20325;-69
2022/10/22 08:18:05;;;;;;;1.35;0.70;;;;;;;17.16;70.75;96623.00;2092453;28;20180;-68
2022/10/22 08:19:06;;;;;;;3.15;0.60;;;;;;;17.45;70.56;96625.34;2090515;28;20633;-68
2022/10/22 08:20:08;;;;;;;1.92;0.90;;;;;;;17.78;69.39;96627.28;2087041;28;20334;-68
2022/10/22 08:21:11;;;;;;;3.70;0.70;;;;;;;17.75;68.55;96618.75;2087375;28;20287;-68
2022/10/22 08:22:12;;;;;;;7.57;1.10;;;;;;;18.09;68.78;96605.69;2088463;28;20284;-68
2022/10/22 08:23:14;;;;;;;3.58;1.20;;;;;;;18.58;67.09;96628.34;2090953;28;20349;-69
2022/10/22 08:24:16;;;;;;;3.28;0.95;;;;;;;19.26;64.77;96619.56;2090341;28;20235;-67
2022/10/22 08:25:21;;;;;;;1.80;0.90;;;;;;;19.51;62.72;96607.00;2090228;28;20224;-68
2022/10/22 08:26:22;;;;;;;2.75;0.70;;;;;;;19.96;62.55;96617.47;2086817;28;20256;-68
2022/10/22 08:27:24;;;;;;;4.28;0.80;;;;;;;19.85;61.46;96625.47;2087068;28;20224;-69
2022/10/22 08:28:27;;;;;;;3.33;0.80;;;;;;;20.33;60.83;96616.19;2090057;28;20307;-68
2022/10/22 08:29:28;;;;;;;2.08;0.70;;;;;;;20.74;60.22;96616.31;2090683;28;20239;-68
2022/10/22 08:48:58;;;;;;;1.35;0.60;;;;;;;23.75;51.87;96636.56;2090053;28;20649;-67
2022/10/22 08:50:00;;;;;;;6.10;0.80;;;;;;;24.28;50.66;96632.25;2091669;28;20221;-67
2022/10/22 08:51:02;;;;;;;1.30;0.60;;;;;;;24.44;49.59;96626.19;2091114;28;20637;-67
2022/10/22 08:52:04;;;;;;;1.10;0.60;;;;;;;24.10;49.81;96628.78;2090983;28;20280;-67
2022/10/22 08:53:12;;;;;;;1.30;0.60;;;;;;;24.35;50.11;96634.28;2091609;28;20200;-67
2022/10/22 08:54:25;;;;;;;2.47;0.70;;;;;;;24.54;49.57;96627.91;2090221;28;20297;-67
2022/10/22 08:55:27;;;;;;;1.60;0.80;;;;;;;24.49;48.89;96636.38;2091430;28;20206;-67
2022/10/22 08:56:30;;;;;;;3.17;0.70;;;;;;;24.71;49.13;96636.88;2083222;28;20238;-67
2022/10/22 08:57:50;;;;;;;2.55;0.57;;;;;;;24.33;50.08;96641.59;2090694;28;20329;-67
2022/10/22 08:58:59;;;;;;;3.78;1.00;;;;;;;23.61;51.65;96635.25;2090227;28;20803;-67
2022/10/22 09:06:48;;;;;;;2.08;0.70;;;;;;;23.14;52.51;96644.19;2085193;28;20260;-67
2022/10/22 09:07:54;;;;;;;1.70;0.80;;;;;;;22.90;54.00;96639.38;2083591;28;20224;-67
2022/10/22 09:08:58;;;;;;;1.10;0.70;;;;;;;23.09;54.17;96651.78;2084333;28;20296;-67
2022/10/22 09:10:02;;;;;;;1.33;0.60;;;;;;;21.60;57.03;96650.38;2085528;28;20200;-67
2022/10/22 09:11:09;;;;;;;5.50;0.88;;;;;;;21.66;58.67;96647.19;2085427;28;20200;-67
2022/10/22 09:12:14;;;;;;;7.32;0.80;;;;;;;21.53;58.74;96650.06;2083816;28;20212;-68
2022/10/22 09:13:22;;;;;;;2.78;0.70;;;;;;;20.86;60.79;96633.78;2083287;28;20552;-69
2022/10/22 09:14:25;;;;;;;2.13;0.88;;;;;;;21.17;59.96;96644.41;2082928;28;20356;-69
2022/10/22 09:15:27;;;;;;;1.55;0.70;;;;;;;21.41;58.43;96649.38;2087063;28;20296;-66
2022/10/22 09:16:37;;;;;;;3.85;1.08;;;;;;;20.99;59.57;96645.03;2082629;28;20314;-66
2022/10/22 09:18:06;;;;;;;3.80;0.70;;;;;;;20.61;61.38;96643.00;2084254;28;20225;-67
2022/10/22 09:19:10;;;;;;;1.75;0.70;;;;;;;21.01;60.04;96639.59;2087291;28;25715;-66
2022/10/22 09:20:22;;;;;;;4.05;0.80;;;;;;;21.26;59.29;96648.06;2088787;28;20305;-66
2022/10/22 09:21:33;;;;;;;3.10;0.70;;;;;;;20.49;61.18;96619.22;2085817;28;20320;-66
2022/10/22 09:23:03;;;;;;;2.08;0.80;;;;;;;19.94;62.50;96650.38;2084763;28;20815;-66
2022/10/22 09:24:12;;;;;;;1.80;0.70;;;;;;;20.62;63.30;96653.50;2084315;28;20236;-66
2022/10/22 09:25:23;;;;;;;6.82;0.77;;;;;;;20.80;63.09;96652.91;2084844;28;20315;-66
2022/10/22 09:26:26;;;;;;;2.50;0.75;;;;;;;20.12;63.14;96650.66;2085052;28;20284;-66
2022/10/22 09:27:30;;;;;;;1.70;0.80;;;;;;;21.41;60.59;96643.19;2092086;28;20219;-66
2022/10/22 09:28:31;;;;;;;12.07;0.90;;;;;;;22.13;58.64;96652.69;2092348;28;20788;-67
2022/10/22 09:29:33;;;;;;;3.25;0.70;;;;;;;22.64;57.49;96652.50;2084794;28;20264;-66
2022/10/22 09:30:37;;;;;;;1.65;0.88;;;;;;;23.54;55.19;96662.66;2083788;28;20822;-67
2022/10/22 09:31:38;;;;;;;1.30;0.80;;;;;;;23.45;55.00;96662.59;2085246;28;20291;-67
2022/10/22 09:32:40;;;;;;;2.65;0.80;;;;;;;24.27;52.98;96661.75;2081181;28;20229;-67
2022/10/22 09:33:44;;;;;;;5.60;0.80;;;;;;;24.22;54.01;96667.53;2081355;28;20239;-67
2022/10/22 09:34:55;;;;;;;3.05;0.80;;;;;;;24.82;49.43;96665.16;2097258;28;20299;-67
2022/10/22 09:36:02;;;;;;;2.85;0.70;;;;;;;24.12;50.31;96672.97;2096816;28;20208;-67
2022/10/22 09:42:02;;;;;;;4.15;0.70;;;;;;;25.80;46.86;96679.97;2082865;28;20185;-67
2022/10/22 09:43:04;;;;;;;2.50;0.80;;;;;;;25.67;45.64;96649.19;2080948;28;20205;-67
2022/10/22 09:44:06;;;;;;;2.10;0.80;;;;;;;26.11;45.09;96679.41;2082185;28;20664;-66
2022/10/22 09:45:23;;;;;;;1.67;0.77;;;;;;;25.32;46.65;96674.25;2084737;28;20655;-67
2022/10/22 09:46:38;;;;;;;3.95;0.70;;;;;;;24.64;47.19;96675.88;2085127;28;20362;-67
2022/10/22 09:47:41;;;;;;;2.50;0.90;;;;;;;23.43;49.72;96666.38;2084255;28;20201;-68
2022/10/22 09:49:10;;;;;;;1.10;0.63;;;;;;;22.67;52.34;96665.50;2087248;28;20244;-67
2022/10/22 09:50:26;;;;;;;2.53;0.70;;;;;;;22.14;53.78;96685.41;2089789;28;20650;-66
2022/10/22 09:51:56;;;;;;;1.73;0.60;;;;;;;21.45;56.54;96682.63;2090074;28;20273;-69
2022/10/22 09:53:18;;;;;;;3.83;1.10;;;;;;;21.52;56.06;96683.78;2084120;28;20304;-69
2022/10/22 10:01:05;;;;;;;5.10;0.80;;;;;;;21.65;54.23;96696.84;2080770;28;20197;-67
2022/10/22 10:02:22;;;;;;;1.83;0.80;;;;;;;22.12;53.92;96688.22;2080708;28;20228;-67
2022/10/22 10:03:39;;;;;;;1.70;0.70;;;;;;;22.52;53.67;96699.72;2084567;28;20829;-67
2022/10/22 10:04:53;;;;;;;2.33;0.70;;;;;;;22.71;53.01;96701.50;2083021;28;20270;-67
2022/10/22 10:05:58;;;;;;;3.42;0.70;;;;;;;23.88;50.74;96700.19;2088410;28;20312;-67
2022/10/22 10:07:16;;;;;;;1.42;0.70;;;;;;;24.99;48.85;96708.81;2087404;28;20196;-67
2022/10/22 10:08:18;;;;;;;2.33;0.70;;;;;;;25.11;48.05;96699.56;2079535;28;20293;-67
2022/10/22 10:09:25;;;;;;;4.95;1.02;;;;;;;25.02;47.47;96705.84;2084849;28;20359;-67
2022/10/22 10:10:32;;;;;;;2.30;1.00;;;;;;;25.19;47.35;96661.34;2082679;28;20212;-67
2022/10/22 10:11:45;;;;;;;2.95;0.63;;;;;;;25.65;47.09;96715.38;2079829;28;20648;-68
2022/10/22 10:13:11;;;;;;;3.25;0.90;;;;;;;25.55;47.10;96704.81;2080779;28;20197;-67
2022/10/22 10:14:54;;;;;;;3.15;0.70;;;;;;;25.55;46.26;96712.00;2084020;28;20947;-66
2022/10/22 10:16:22;;;;;;;2.40;0.63;;;;;;;26.03;45.77;96715.81;2080722;28;20300;-65
2022/10/22 10:17:39;;;;;;;3.83;0.70;;;;;;;26.28;44.94;96715.03;2083499;28;20280;-65
2022/10/22 10:24:05;;;;;;;2.35;0.70;;;;;;;26.15;44.55;96735.06;2092329;28;20184;-65
2022/10/22 10:25:30;;;;;;;1.70;0.70;;;;;;;26.33;44.22;96726.06;2091203;28;20647;-67
2022/10/22 10:26:52;;;;;;;2.88;0.73;;;;;;;27.25;43.46;96733.91;2091028;28;20283;-68
2022/10/22 10:28:20;;;;;;;2.00;0.90;;;;;;;26.86;43.19;96727.44;2092028;28;20260;-67
2022/10/22 10:29:37;;;;;;;10.88;2.78;;;;;;;27.52;42.25;96730.00;2089799;28;20387;-67
2022/10/22 10:30:56;;;;;;;1.48;0.75;;;;;;;26.31;43.86;96730.75;2092251;28;20865;-66
2022/10/22 10:32:16;;;;;;;1.98;0.80;;;;;;;26.20;44.40;96731.91;2093642;28;20227;-66
2022/10/22 10:33:51;;;;;;;4.70;1.10;;;;;;;26.18;44.96;96736.59;2092778;28;20226;-66
2022/10/22 10:35:20;;;;;;;2.75;0.80;;;;;;;25.94;45.31;96734.66;2092589;28;20652;-66
2022/10/22 10:43:14;;;;;;;2.00;0.90;;;;;;;28.27;41.66;96711.69;2093129;28;20233;-67
2022/10/22 10:44:38;;;;;;;2.65;0.88;;;;;;;28.89;40.58;96715.25;2091924;28;20730;-66
2022/10/22 10:45:43;;;;;;;5.85;1.08;;;;;;;27.68;42.24;96737.16;2091740;28;20196;-66
2022/10/22 10:47:10;;;;;;;1.15;0.70;;;;;;;26.29;45.08;96730.09;2093041;28;20518;-67
2022/10/22 10:48:25;;;;;;;2.97;1.05;;;;;;;25.41;46.87;96721.44;2092263;28;20790;-66
2022/10/22 10:49:32;;;;;;;9.60;4.95;;;;;;;24.02;49.45;96732.69;2088049;28;20236;-66
2022/10/22 10:50:48;;;;;;;4.82;2.10;;;;;;;23.74;50.85;96733.50;2088825;28;20658;-67
2022/10/22 10:52:00;;;;;;;2.30;1.10;;;;;;;24.97;48.26;96734.88;2091337;28;20226;-66
2022/10/22 10:53:37;;;;;;;2.65;1.00;;;;;;;26.14;46.81;96738.75;2092711;28;20203;-66
2022/10/22 10:55:21;;;;;;;3.83;0.85;;;;;;;25.89;46.38;96733.31;2088700;28;20314;-67
2022/10/22 10:56:35;;;;;;;6.85;1.08;;;;;;;26.87;44.69;96730.97;2075724;28;20295;-66
2022/10/22 10:58:17;;;;;;;5.43;1.15;;;;;;;28.16;42.22;96734.41;2092127;28;20253;-66
2022/10/22 10:59:24;;;;;;;4.03;0.90;;;;;;;26.49;44.87;96730.63;2091136;28;20220;-66
2022/10/22 11:00:31;;;;;;;8.18;0.90;;;;;;;27.23;43.59;96727.06;2092073;28;20299;-67
2022/10/22 11:02:00;;;;;;;5.65;0.80;;;;;;;28.06;42.05;96724.91;2092113;28;20334;-66
2022/10/22 11:03:27;;;;;;;4.25;0.85;;;;;;;27.06;44.12;96721.72;2091153;28;20330;-66
2022/10/22 11:04:44;;;;;;;3.75;1.00;;;;;;;27.52;42.02;96719.25;2093561;28;20792;-67
2022/10/22 11:05:54;;;;;;;2.25;1.02;;;;;;;27.89;40.13;96718.78;2092174;28;20282;-68
2022/10/22 11:12:09;;;;;;;5.43;0.93;;;;;;;28.18;40.38;96723.50;2091175;28;20590;-67
2022/10/22 11:13:15;;;;;;;2.55;0.90;;;;;;;28.12;41.23;96718.84;2092245;28;20204;-67
2022/10/22 11:14:38;;;;;;;4.13;1.02;;;;;;;26.88;42.26;96720.06;2087976;28;20737;-67
2022/10/22 11:15:45;;;;;;;2.60;0.93;;;;;;;26.81;43.19;96713.72;2089948;28;20638;-67
2022/10/22 11:17:00;;;;;;;4.63;1.10;;;;;;;27.12;41.91;96702.28;2092304;28;20282;-67
2022/10/22 11:24:46;;;;;;;78.82;59.30;;;;;;;28.24;40.02;96713.88;2091367;28;20223;-66
2022/10/22 11:25:48;;;;;;;8.93;1.30;;;;;;;27.53;41.45;96718.25;2092533;28;20259;-66
2022/10/22 11:27:03;;;;;;;3.53;0.90;;;;;;;27.12;42.42;96717.53;2092711;28;20283;-66
2022/10/22 11:28:13;;;;;;;3.20;0.82;;;;;;;27.09;43.96;96683.88;2092761;28;20278;-65
2022/10/22 11:29:30;;;;;;;4.97;1.00;;;;;;;27.58;42.57;96706.16;2091872;28;20220;-65
2022/10/22 11:37:08;;;;;;;2.22;0.90;;;;;;;28.96;39.03;96712.66;2092842;28;20207;-65
2022/10/22 11:38:23;;;;;;;4.22;1.05;;;;;;;27.23;41.97;96705.63;2088329;28;20231;-65
2022/10/22 11:39:33;;;;;;;5.40;1.02;;;;;;;25.45;44.73;96712.09;2089150;28;20663;-65
2022/10/22 11:40:42;;;;;;;2.35;1.00;;;;;;;27.30;42.14;96711.94;2090119;28;20207;-66
2022/10/22 11:41:44;;;;;;;10.43;1.00;;;;;;;28.41;40.70;96701.19;2092299;28;20299;-66
2022/10/22 11:48:01;;;;;;;4.47;1.10;;;;;;;25.87;43.67;96707.75;2083870;28;20303;-68
2022/10/22 11:49:08;;;;;;;1.85;0.82;;;;;;;26.97;42.00;96695.94;2082810;28;20252;-67
2022/10/22 11:50:20;;;;;;;4.50;0.80;;;;;;;27.04;42.00;96702.31;2083486;28;20454;-67
2022/10/22 11:51:31;;;;;;;9.75;1.33;;;;;;;27.20;42.44;96701.44;2083317;28;20232;-67
2022/10/22 11:52:35;;;;;;;5.80;1.55;;;;;;;27.69;41.16;96703.09;2080195;28;20204;-66
2022/10/22 11:53:37;;;;;;;1.88;0.73;;;;;;;27.67;40.35;96699.78;2080540;28;20471;-66
2022/10/22 12:06:03;;;;;;;5.00;1.20;;;;;;;22.05;51.11;96694.25;2091720;28;20212;-66
2022/10/22 12:07:30;;;;;;;4.65;0.93;;;;;;;22.86;48.76;96698.41;2089713;28;20230;-66
2022/10/22 12:08:33;;;;;;;4.28;0.90;;;;;;;22.45;49.14;96703.94;2091486;28;20263;-66
2022/10/22 12:09:39;;;;;;;3.30;0.70;;;;;;;22.38;49.76;96698.31;2090219;28;20739;-66
2022/10/22 12:11:09;;;;;;;2.88;0.90;;;;;;;23.11;48.21;96694.25;2091104;28;20196;-67
2022/10/22 12:19:12;;;;;;;3.35;1.08;;;;;;;21.41;51.84;96691.00;2090715;28;20203;-66
2022/10/22 12:20:17;;;;;;;8.43;1.17;;;;;;;21.61;50.77;96690.13;2090270;28;20228;-66
2022/10/22 12:21:19;;;;;;;6.43;0.95;;;;;;;23.00;48.21;96692.59;2091355;28;20247;-66
2022/10/22 12:22:30;;;;;;;2.45;0.70;;;;;;;22.80;48.16;96683.84;2092623;28;20283;-66
2022/10/22 12:23:34;;;;;;;3.15;0.80;;;;;;;22.48;48.21;96691.16;2090749;28;20231;-66
2022/10/22 12:30:03;;;;;;;6.50;1.00;;;;;;;23.68;46.88;96685.31;2089240;28;20219;-66
2022/10/22 12:31:05;;;;;;;8.77;1.17;;;;;;;24.12;46.76;96686.31;2090729;28;20207;-65
2022/10/22 12:32:12;;;;;;;10.30;1.20;;;;;;;23.19;49.34;96685.56;2090736;28;20280;-66
2022/10/22 12:33:20;;;;;;;6.35;1.52;;;;;;;22.25;50.45;96677.31;2091989;28;20727;-66
2022/10/22 12:34:23;;;;;;;5.82;1.20;;;;;;;21.27;51.23;96679.78;2090830;28;20243;-66
2022/10/22 12:35:28;;;;;;;8.32;1.52;;;;;;;21.60;52.63;96672.50;2092537;28;20219;-65
2022/10/22 12:36:32;;;;;;;5.63;1.00;;;;;;;21.80;53.67;96680.50;2093392;28;20239;-66
2022/10/22 12:37:38;;;;;;;6.15;1.00;;;;;;;23.30;52.09;96686.22;2093095;28;20611;-66
2022/10/22 12:38:45;;;;;;;8.90;1.30;;;;;;;23.32;52.20;96680.72;2093820;28;20196;-67
2022/10/22 12:39:47;;;;;;;8.60;3.53;;;;;;;23.52;53.37;96692.13;2093612;28;20235;-65
2022/10/22 12:40:50;;;;;;;8.40;1.58;;;;;;;23.02;53.47;96679.13;2093381;28;20274;-65
2022/10/22 12:41:53;;;;;;;16.50;1.00;;;;;;;22.39;53.41;96678.72;2093247;28;20278;-65
2022/10/22 12:42:57;;;;;;;3.88;1.00;;;;;;;21.71;53.22;96674.19;2093625;28;20895;-65
2022/10/22 12:44:01;;;;;;;3.60;0.95;;;;;;;20.81;56.17;96679.31;2094186;28;20200;-65
2022/10/22 12:45:03;;;;;;;3.00;0.98;;;;;;;20.61;55.73;96675.69;2094483;28;20661;-66
2022/10/22 12:46:12;;;;;;;3.17;0.90;;;;;;;20.88;56.22;96675.16;2093828;28;20214;-66
2022/10/22 12:47:16;;;;;;;7.38;1.45;;;;;;;20.65;56.96;96676.25;2089490;28;20197;-66
2022/10/22 12:48:22;;;;;;;9.70;1.25;;;;;;;21.50;54.07;96669.78;2091242;28;20227;-66
2022/10/22 12:49:37;;;;;;;14.57;1.05;;;;;;;22.15;53.39;96666.66;2095136;28;20231;-66
2022/10/22 12:50:44;;;;;;;6.78;1.05;;;;;;;22.49;52.53;96676.06;2093510;28;20286;-66
2022/10/22 12:51:47;;;;;;;6.63;0.90;;;;;;;22.93;51.07;96676.38;2091833;28;20229;-66
2022/10/22 12:52:48;;;;;;;4.07;0.75;;;;;;;23.52;48.21;96673.47;2090653;28;20662;-66
2022/10/22 12:53:55;;;;;;;4.72;1.15;;;;;;;22.69;50.69;96673.34;2090108;28;20196;-65
2022/10/22 13:00:03;;;;;;;5.30;0.90;;;;;;;22.36;50.44;96676.34;2091728;28;20769;-65
2022/10/22 13:01:12;;;;;;;3.42;0.90;;;;;;;23.20;46.87;96666.78;2091879;28;20204;-68
2022/10/22 13:02:20;;;;;;;3.00;0.90;;;;;;;24.04;43.87;96654.22;2097131;28;20192;-65
2022/10/22 13:03:32;;;;;;;2.80;0.80;;;;;;;25.00;43.33;96676.63;2092511;28;20249;-65
2022/10/22 13:04:36;;;;;;;3.78;0.90;;;;;;;23.03;44.62;96667.50;2092157;28;20303;-65
2022/10/22 13:05:38;;;;;;;5.35;0.95;;;;;;;23.08;44.61;96674.06;2089516;28;20283;-65
2022/10/22 13:18:21;;;;;;;6.22;1.02;;;;;;;26.62;41.09;96673.88;2093612;28;20176;-65
2022/10/22 13:19:36;;;;;;;4.50;1.00;;;;;;;27.18;38.54;96673.97;2095721;28;20334;-65
2022/10/22 13:20:55;;;;;;;2.65;0.70;;;;;;;25.78;40.56;96671.28;2094130;28;20199;-65
2022/10/22 13:21:57;;;;;;;5.28;0.70;;;;;;;26.42;40.51;96668.88;2093463;28;20679;-65
2022/10/22 13:23:01;;;;;;;3.20;0.95;;;;;;;26.32;40.16;96670.88;2092341;28;20265;-65
2022/10/22 13:24:19;;;;;;;3.17;0.90;;;;;;;25.39;42.19;96648.59;2092081;28;20200;-65
2022/10/22 13:25:26;;;;;;;8.52;1.00;;;;;;;25.92;40.48;96662.63;2092915;28;20607;-65
2022/10/22 13:26:36;;;;;;;4.82;1.10;;;;;;;25.57;40.94;96662.72;2091496;28;20204;-65
2022/10/22 13:27:47;;;;;;;2.25;0.82;;;;;;;24.04;43.75;96650.72;2093032;28;20291;-65
2022/10/22 13:28:53;;;;;;;3.67;0.90;;;;;;;25.04;43.70;96656.63;2092933;28;20283;-65
2022/10/22 13:29:56;;;;;;;8.20;0.95;;;;;;;25.30;43.01;96654.91;2090005;28;20700;-65
2022/10/22 13:31:09;;;;;;;3.13;0.80;;;;;;;23.81;45.04;96654.63;2089919;28;20254;-65
2022/10/22 13:32:30;;;;;;;6.80;0.95;;;;;;;23.08;46.94;96655.41;2090350;28;20616;-66
2022/10/22 13:33:34;;;;;;;7.57;1.05;;;;;;;22.98;46.81;96658.16;2091782;28;20238;-65
2022/10/22 13:34:36;;;;;;;5.47;0.90;;;;;;;22.20;48.99;96660.94;2092708;28;20702;-65
2022/10/22 13:35:37;;;;;;;6.45;1.05;;;;;;;23.31;47.27;96665.72;2092460;28;20200;-65
2022/10/22 13:36:39;;;;;;;7.63;1.00;;;;;;;23.85;45.23;96657.84;2093732;28;20410;-65
2022/10/22 13:37:40;;;;;;;2.67;0.90;;;;;;;23.19;44.68;96662.44;2091294;28;20276;-65
2022/10/22 13:38:43;;;;;;;5.93;1.13;;;;;;;23.13;46.58;96673.63;2093289;28;20650;-66
2022/10/22 13:39:45;;;;;;;3.55;1.20;;;;;;;23.89;44.56;96664.53;2091600;28;20314;-65
2022/10/22 13:40:46;;;;;;;3.15;1.00;;;;;;;24.61;43.60;96669.84;2092997;28;20279;-65
2022/10/22 13:41:49;;;;;;;3.63;0.85;;;;;;;25.02;42.17;96660.44;2092508;28;20238;-65
2022/10/22 13:48:02;;;;;;;3.90;0.85;;;;;;;24.83;43.76;96656.16;2093515;28;20739;-64
2022/10/22 13:49:04;;;;;;;3.65;1.00;;;;;;;25.83;42.04;96651.06;2092917;28;20311;-65
2022/10/22 13:50:15;;;;;;;2.95;0.95;;;;;;;24.90;43.49;96651.84;2093392;28;20675;-65
2022/10/22 13:51:20;;;;;;;5.00;1.23;;;;;;;23.47;45.83;96651.78;2092168;28;20210;-64
2022/10/22 13:52:29;;;;;;;48.88;27.98;;;;;;;23.55;46.72;96654.50;2092536;28;20227;-65
2022/10/22 13:53:30;;;;;;;6.18;1.10;;;;;;;24.54;44.20;96658.09;2089244;28;20648;-65
2022/10/22 14:06:12;;;;;;;3.25;1.20;;;;;;;22.35;46.34;96664.84;2092979;28;20577;-65
2022/10/22 14:07:15;;;;;;;3.20;0.80;;;;;;;22.79;45.27;96656.38;2093257;28;20207;-64
2022/10/22 14:08:22;;;;;;;8.95;0.98;;;;;;;23.30;44.79;96664.91;2093217;28;20196;-65
2022/10/22 14:09:23;;;;;;;3.72;0.93;;;;;;;22.59;46.24;96660.91;2095753;28;20254;-65
2022/10/22 14:10:24;;;;;;;3.70;1.25;;;;;;;22.34;46.93;96667.63;2096658;28;20714;-64
2022/10/22 14:11:26;;;;;;;4.88;1.23;;;;;;;22.63;46.39;96638.34;2090966;28;20763;-65
2022/10/22 14:12:27;;;;;;;9.27;1.35;;;;;;;22.22;46.93;96648.34;2093291;28;20202;-65
2022/10/22 14:13:29;;;;;;;6.00;1.40;;;;;;;22.91;46.66;96661.53;2092666;28;20293;-65
2022/10/22 14:14:34;;;;;;;3.92;1.20;;;;;;;21.44;48.08;96621.69;2088616;28;20299;-65
2022/10/22 14:15:37;;;;;;;7.85;0.80;;;;;;;21.73;47.90;96652.81;2090817;28;20279;-65
2022/10/22 14:16:38;;;;;;;5.20;0.98;;;;;;;23.34;44.40;96656.59;2091879;28;20232;-65
2022/10/22 14:17:48;;;;;;;3.15;0.90;;;;;;;24.02;43.68;96632.19;2090529;28;20765;-65
2022/10/22 14:18:50;;;;;;;5.95;1.10;;;;;;;24.67;42.79;96646.22;2093368;28;20295;-65
2022/10/22 14:19:51;;;;;;;11.15;1.15;;;;;;;24.79;42.02;96652.97;2093664;28;20203;-65
2022/10/22 14:20:55;;;;;;;4.70;0.80;;;;;;;24.51;41.11;96644.25;2092299;28;20215;-64
2022/10/22 14:21:57;;;;;;;9.18;1.10;;;;;;;24.12;42.75;96648.97;2091275;28;20254;-64
2022/10/22 14:23:06;;;;;;;3.78;1.20;;;;;;;23.48;44.76;96653.44;2091649;28;20246;-64
2022/10/22 14:24:10;;;;;;;5.55;1.10;;;;;;;22.52;47.58;96649.16;2093244;28;20693;-65
2022/10/22 14:25:21;;;;;;;3.08;1.00;;;;;;;23.70;44.85;96648.69;2092703;28;20639;-64
2022/10/22 14:26:33;;;;;;;5.15;1.58;;;;;;;24.08;44.13;96650.25;2091706;28;20203;-64
2022/10/22 14:27:37;;;;;;;5.28;1.20;;;;;;;24.33;44.13;96641.59;2091058;28;20231;-63
2022/10/22 14:28:38;;;;;;;3.30;0.90;;;;;;;23.54;45.77;96642.19;2088826;28;20695;-64
2022/10/22 14:30:04;;;;;;;4.60;1.10;;;;;;;23.80;47.29;96649.44;2092718;28;20242;-64
2022/10/22 14:31:08;;;;;;;3.53;1.10;;;;;;;22.90;48.14;96644.72;2088575;28;20244;-64
2022/10/22 14:32:15;;;;;;;9.13;1.23;;;;;;;22.92;47.58;96642.75;2093739;28;20211;-63
2022/10/22 14:33:20;;;;;;;6.03;1.10;;;;;;;22.72;47.36;96647.28;2088938;28;20196;-63
2022/10/22 14:34:21;;;;;;;3.17;1.20;;;;;;;23.25;47.01;96643.19;2088659;28;20259;-63
2022/10/22 14:35:24;;;;;;;7.25;1.25;;;;;;;23.91;45.65;96621.75;2089980;28;20288;-63
2022/10/22 14:36:25;;;;;;;4.07;1.02;;;;;;;24.54;45.09;96638.59;2091833;28;20283;-63
2022/10/22 14:37:26;;;;;;;4.60;1.08;;;;;;;24.65;44.92;96645.56;2096078;28;20286;-63
2022/10/22 14:38:32;;;;;;;3.38;1.17;;;;;;;25.11;45.30;96638.09;2095010;28;20234;-64
2022/10/22 14:39:33;;;;;;;5.95;0.90;;;;;;;24.69;44.72;96634.38;2091657;28;20251;-64
2022/10/22 14:40:37;;;;;;;2.42;1.10;;;;;;;24.62;44.13;96649.34;2092861;28;20227;-64
2022/10/22 14:41:39;;;;;;;6.68;1.20;;;;;;;24.68;44.25;96658.56;2091915;28;20197;-63
2022/10/22 14:42:43;;;;;;;6.53;1.05;;;;;;;23.86;45.80;96653.31;2090257;28;20200;-63
2022/10/22 14:43:45;;;;;;;8.55;1.13;;;;;;;22.81;49.22;96650.91;2092350;28;20308;-63
2022/10/22 14:44:46;;;;;;;5.43;1.02;;;;;;;23.50;47.00;96646.13;2088200;28;20303;-64
2022/10/22 14:45:48;;;;;;;6.25;1.50;;;;;;;23.89;45.59;96650.38;2090353;28;20301;-63
2022/10/22 14:46:53;;;;;;;2.95;0.90;;;;;;;23.27;47.26;96659.88;2092933;28;20353;-64
2022/10/22 14:47:54;;;;;;;5.30;1.00;;;;;;;21.97;49.87;96657.72;2092078;28;20283;-63
2022/10/22 14:48:55;;;;;;;5.25;1.13;;;;;;;22.26;50.36;96654.19;2091218;28;20319;-63
2022/10/22 14:49:57;;;;;;;8.45;0.95;;;;;;;22.39;49.60;96649.47;2088643;28;20556;-63
2022/10/22 14:50:58;;;;;;;4.03;1.00;;;;;;;22.34;49.93;96657.81;2089587;28;20247;-63
2022/10/22 14:52:00;;;;;;;1.88;1.00;;;;;;;23.27;48.84;96659.88;2093825;28;20196;-63
2022/10/22 14:53:01;;;;;;;3.67;0.90;;;;;;;22.82;47.88;96644.59;2088800;28;20672;-65
2022/10/22 14:54:03;;;;;;;7.82;1.30;;;;;;;22.15;48.92;96665.84;2090842;28;20338;-64
2022/10/22 14:55:05;;;;;;;5.65;1.35;;;;;;;22.69;49.02;96646.75;2089821;28;20211;-63
2022/10/22 14:56:10;;;;;;;7.28;1.05;;;;;;;23.44;48.19;96655.56;2091795;28;20329;-64
2022/10/22 14:57:13;;;;;;;4.00;1.33;;;;;;;23.10;49.39;96668.59;2092312;28;20207;-64
2022/10/22 14:58:14;;;;;;;3.33;1.30;;;;;;;23.04;47.39;96663.88;2092268;28;20196;-64
2022/10/22 14:59:16;;;;;;;3.83;0.98;;;;;;;22.95;46.20;96655.75;2092394;28;20319;-63
2022/10/22 15:00:18;;;;;;;3.95;1.30;;;;;;;22.78;48.57;96670.66;2092645;28;20238;-64
2022/10/22 15:01:19;;;;;;;2.88;1.30;;;;;;;22.95;48.25;96673.56;2088666;28;20326;-64
2022/10/22 15:02:21;;;;;;;2.55;0.80;;;;;;;23.38;48.43;96663.31;2089372;28;20249;-64
2022/10/22 15:03:23;;;;;;;6.15;1.38;;;;;;;22.71;50.62;96653.59;2096174;28;20245;-64
2022/10/22 15:04:26;;;;;;;8.20;1.02;;;;;;;22.96;49.65;96664.59;2095713;28;20777;-64
2022/10/22 15:05:27;;;;;;;3.35;0.82;;;;;;;22.88;49.70;96672.47;2092086;28;20300;-63
2022/10/22 15:06:28;;;;;;;3.03;1.00;;;;;;;23.41;49.06;96673.69;2091808;28;20329;-64
2022/10/22 15:07:30;;;;;;;4.07;1.00;;;;;;;23.45;48.90;96673.25;2088665;28;20681;-63
2022/10/22 15:08:32;;;;;;;4.60;0.90;;;;;;;24.25;47.56;96675.25;2089231;28;20224;-63
2022/10/22 15:09:37;;;;;;;7.47;1.30;;;;;;;24.65;46.09;96670.41;2089411;28;20329;-63
2022/10/22 15:10:39;;;;;;;4.43;1.10;;;;;;;23.61;48.80;96658.41;2090145;28;20203;-63
2022/10/22 15:11:41;;;;;;;4.47;1.05;;;;;;;23.76;49.16;96674.75;2092031;28;20204;-63
2022/10/22 15:18:04;;;;;;;4.50;1.20;;;;;;;25.04;46.32;96675.31;2091698;28;20200;-63
2022/10/22 15:19:05;;;;;;;16.45;1.73;;;;;;;23.74;49.06;96671.38;2089166;28;20348;-63
2022/10/22 15:20:07;;;;;;;7.50;1.13;;;;;;;24.49;47.34;96673.75;2091900;28;20231;-63
2022/10/22 15:21:19;;;;;;;4.75;1.30;;;;;;;24.91;44.98;96674.88;2091264;28;20230;-63
2022/10/22 15:22:21;;;;;;;5.13;1.10;;;;;;;24.74;45.47;96674.78;2091543;28;20239;-63
2022/10/22 15:23:23;;;;;;;5.13;1.00;;;;;;;24.47;44.87;96675.75;2092013;28;20686;-63
2022/10/22 15:24:24;;;;;;;3.95;0.90;;;;;;;24.92;44.63;96676.56;2090900;28;20251;-63
2022/10/22 15:25:25;;;;;;;6.22;0.98;;;;;;;24.72;44.57;96657.25;2095874;28;20659;-64
2022/10/22 15:26:28;;;;;;;6.85;1.20;;;;;;;24.45;45.18;96677.72;2095961;28;20644;-64